ASX454 LIPZ-LIBP
Flight info
| Callsign | ASX454 |
|---|---|
| Flight time | 0h 54m |
| Altitude | 29000 |
| Route | CHI DCT ARDAM DCT BELOV DCT LAPVO Y579 INKIM |
| Aircraft | A320/M-SDE3FGHIRWY/LB1 |
Departure
| Time | 2026-04-17 12:12 |
|---|---|
| Airport | Venice Marco Polo Airport (LIPZ) |
Arrival
| Time | 2026-04-17 13:06 |
|---|---|
| Airport | Abruzzo Airport (LIBP) |
| Time | Latitude | Longitude | Altitude | Speed | Heading |
|---|---|---|---|---|---|
| 2026-04-17 11:49 | 45.50548 | 12.34213 | 18 ft | 0 kts | 267° |
| 2026-04-17 12:04 | 45.50548 | 12.34229 | 44 ft | 4 kts | 268° |
| 2026-04-17 12:04 | 45.50548 | 12.34267 | 19 ft | 4 kts | 273° |
| 2026-04-17 12:04 | 45.50545 | 12.34305 | 16 ft | 4 kts | 287° |
| 2026-04-17 12:05 | 45.50534 | 12.34336 | 16 ft | 4 kts | 334° |
| 2026-04-17 12:05 | 45.50527 | 12.34340 | 18 ft | 0 kts | 357° |
| 2026-04-17 12:07 | 45.50545 | 12.34353 | 15 ft | 5 kts | 38° |
| 2026-04-17 12:07 | 45.50566 | 12.34386 | 15 ft | 5 kts | 49° |
| 2026-04-17 12:08 | 45.50565 | 12.34460 | 16 ft | 10 kts | 126° |
| 2026-04-17 12:08 | 45.50507 | 12.34547 | 18 ft | 14 kts | 131° |
| 2026-04-17 12:08 | 45.50433 | 12.34669 | 16 ft | 16 kts | 130° |
| 2026-04-17 12:08 | 45.50346 | 12.34622 | 15 ft | 16 kts | 221° |
| 2026-04-17 12:09 | 45.50263 | 12.34517 | 18 ft | 16 kts | 221° |
| 2026-04-17 12:09 | 45.50170 | 12.34400 | 16 ft | 20 kts | 221° |
| 2026-04-17 12:09 | 45.50081 | 12.34310 | 15 ft | 8 kts | 182° |
| 2026-04-17 12:09 | 45.50070 | 12.34315 | 15 ft | 0 kts | 157° |
| 2026-04-17 12:10 | 45.50056 | 12.34334 | 16 ft | 5 kts | 119° |
| 2026-04-17 12:10 | 45.50052 | 12.34435 | 15 ft | 16 kts | 90° |
| 2026-04-17 12:10 | 45.50076 | 12.34628 | 15 ft | 25 kts | 47° |
| 2026-04-17 12:11 | 45.50368 | 12.35004 | 12 ft | 94 kts | 41° |
| 2026-04-17 12:11 | 45.51019 | 12.35841 | 17 ft | 155 kts | 42° |
| 2026-04-17 12:11 | 45.51846 | 12.36919 | 555 ft | 159 kts | 45° |
| 2026-04-17 12:12 | 45.53378 | 12.39207 | 1909 ft | 159 kts | 65° |
| 2026-04-17 12:12 | 45.53650 | 12.40710 | 2548 ft | 157 kts | 91° |
| 2026-04-17 12:12 | 45.53520 | 12.42237 | 3173 ft | 155 kts | 99° |
| 2026-04-17 12:12 | 45.53345 | 12.43848 | 3535 ft | 176 kts | 98° |
| 2026-04-17 12:13 | 45.52929 | 12.45587 | 3819 ft | 199 kts | 126° |
| 2026-04-17 12:13 | 45.51747 | 12.46824 | 4109 ft | 226 kts | 152° |
| 2026-04-17 12:13 | 45.50249 | 12.47834 | 4527 ft | 250 kts | 153° |
| 2026-04-17 12:13 | 45.48606 | 12.48912 | 5135 ft | 267 kts | 154° |
| 2026-04-17 12:14 | 45.46894 | 12.50026 | 5957 ft | 274 kts | 154° |
| 2026-04-17 12:14 | 45.45128 | 12.51179 | 6753 ft | 283 kts | 154° |
| 2026-04-17 12:14 | 45.43324 | 12.52364 | 7630 ft | 286 kts | 154° |
| 2026-04-17 12:14 | 45.41508 | 12.53560 | 8500 ft | 290 kts | 154° |
| 2026-04-17 12:15 | 45.39664 | 12.54778 | 9363 ft | 294 kts | 154° |
| 2026-04-17 12:15 | 45.37800 | 12.56010 | 10197 ft | 298 kts | 154° |
| 2026-04-17 12:15 | 45.35853 | 12.57299 | 10564 ft | 320 kts | 154° |
| 2026-04-17 12:15 | 45.33761 | 12.58683 | 10829 ft | 342 kts | 154° |
| 2026-04-17 12:16 | 45.31567 | 12.60132 | 11409 ft | 352 kts | 154° |
| 2026-04-17 12:16 | 45.29329 | 12.61611 | 12131 ft | 357 kts | 154° |
| 2026-04-17 12:16 | 45.27057 | 12.63107 | 12865 ft | 362 kts | 154° |
| 2026-04-17 12:16 | 45.24763 | 12.64616 | 13598 ft | 366 kts | 154° |
| 2026-04-17 12:17 | 45.22442 | 12.66147 | 14291 ft | 370 kts | 154° |
| 2026-04-17 12:17 | 45.20097 | 12.67699 | 14927 ft | 374 kts | 154° |
| 2026-04-17 12:17 | 45.17726 | 12.69265 | 15560 ft | 378 kts | 154° |
| 2026-04-17 12:17 | 45.15328 | 12.70842 | 16181 ft | 382 kts | 155° |
| 2026-04-17 12:18 | 45.12905 | 12.72429 | 16807 ft | 386 kts | 155° |
| 2026-04-17 12:18 | 45.10455 | 12.74029 | 17445 ft | 390 kts | 155° |
| 2026-04-17 12:18 | 45.07978 | 12.75650 | 18054 ft | 394 kts | 155° |
| 2026-04-17 12:18 | 45.05483 | 12.77285 | 18634 ft | 398 kts | 155° |
| 2026-04-17 12:19 | 45.02956 | 12.78940 | 19159 ft | 402 kts | 155° |
| 2026-04-17 12:19 | 45.00403 | 12.80607 | 19689 ft | 406 kts | 155° |
| 2026-04-17 12:19 | 44.97829 | 12.82283 | 20215 ft | 410 kts | 155° |
| 2026-04-17 12:19 | 44.95224 | 12.83980 | 20744 ft | 414 kts | 155° |
| 2026-04-17 12:20 | 44.92597 | 12.85691 | 21271 ft | 418 kts | 155° |
| 2026-04-17 12:20 | 44.89944 | 12.87416 | 21795 ft | 422 kts | 155° |
| 2026-04-17 12:20 | 44.87265 | 12.89157 | 22302 ft | 426 kts | 155° |
| 2026-04-17 12:20 | 44.84561 | 12.90914 | 22792 ft | 430 kts | 155° |
| 2026-04-17 12:21 | 44.81838 | 12.92679 | 23292 ft | 433 kts | 155° |
| 2026-04-17 12:21 | 44.79081 | 12.94461 | 23767 ft | 437 kts | 155° |
| 2026-04-17 12:21 | 44.76311 | 12.96251 | 24166 ft | 440 kts | 155° |
| 2026-04-17 12:21 | 44.73520 | 12.98053 | 24580 ft | 443 kts | 155° |
| 2026-04-17 12:22 | 44.70716 | 12.99864 | 24963 ft | 445 kts | 155° |
| 2026-04-17 12:22 | 44.67926 | 13.01669 | 25336 ft | 448 kts | 155° |
| 2026-04-17 12:22 | 44.65051 | 13.03528 | 25709 ft | 451 kts | 155° |
| 2026-04-17 12:22 | 44.62190 | 13.05373 | 26079 ft | 453 kts | 155° |
| 2026-04-17 12:23 | 44.59347 | 13.07203 | 26445 ft | 456 kts | 155° |
| 2026-04-17 12:23 | 44.56419 | 13.09084 | 26813 ft | 458 kts | 155° |
| 2026-04-17 12:23 | 44.53510 | 13.10952 | 27165 ft | 461 kts | 155° |
| 2026-04-17 12:23 | 44.50585 | 13.12820 | 27517 ft | 463 kts | 155° |
| 2026-04-17 12:24 | 44.47642 | 13.14695 | 27864 ft | 466 kts | 155° |
| 2026-04-17 12:24 | 44.44685 | 13.16579 | 28200 ft | 468 kts | 155° |
| 2026-04-17 12:24 | 44.41716 | 13.18469 | 28521 ft | 470 kts | 155° |
| 2026-04-17 12:24 | 44.38770 | 13.20348 | 28889 ft | 472 kts | 155° |
| 2026-04-17 12:25 | 44.35772 | 13.22264 | 29105 ft | 474 kts | 155° |
| 2026-04-17 12:25 | 44.29882 | 13.26026 | 29138 ft | 460 kts | 155° |
| 2026-04-17 12:26 | 44.24073 | 13.29713 | 29140 ft | 458 kts | 155° |
| 2026-04-17 12:26 | 44.18271 | 13.33390 | 29141 ft | 457 kts | 155° |
| 2026-04-17 12:27 | 44.12469 | 13.37049 | 29138 ft | 457 kts | 155° |
| 2026-04-17 12:27 | 44.06672 | 13.40702 | 29135 ft | 457 kts | 155° |
| 2026-04-17 12:28 | 44.00883 | 13.44357 | 29138 ft | 457 kts | 155° |
| 2026-04-17 12:28 | 43.95085 | 13.47998 | 29139 ft | 457 kts | 156° |
| 2026-04-17 12:29 | 43.89288 | 13.51610 | 29138 ft | 457 kts | 155° |
| 2026-04-17 12:29 | 43.83493 | 13.55231 | 29132 ft | 457 kts | 155° |
| 2026-04-17 12:30 | 43.77701 | 13.58850 | 29122 ft | 457 kts | 155° |
| 2026-04-17 12:30 | 43.71877 | 13.62485 | 28839 ft | 466 kts | 155° |
| 2026-04-17 12:30 | 43.68899 | 13.64339 | 27808 ft | 471 kts | 155° |
| 2026-04-17 12:31 | 43.65909 | 13.66199 | 27040 ft | 469 kts | 155° |
| 2026-04-17 12:31 | 43.62950 | 13.68035 | 26434 ft | 464 kts | 155° |
| 2026-04-17 12:31 | 43.60022 | 13.69845 | 25821 ft | 459 kts | 155° |
| 2026-04-17 12:31 | 43.57121 | 13.71635 | 25219 ft | 454 kts | 155° |
| 2026-04-17 12:32 | 43.54253 | 13.73406 | 24634 ft | 449 kts | 155° |
| 2026-04-17 12:32 | 43.51414 | 13.75158 | 24080 ft | 445 kts | 155° |
| 2026-04-17 12:32 | 43.48604 | 13.76891 | 23496 ft | 440 kts | 155° |
| 2026-04-17 12:32 | 43.45824 | 13.78605 | 22951 ft | 434 kts | 155° |
| 2026-04-17 12:33 | 43.43080 | 13.80297 | 22438 ft | 429 kts | 155° |
| 2026-04-17 12:33 | 43.40375 | 13.81965 | 21929 ft | 424 kts | 155° |
| 2026-04-17 12:33 | 43.37692 | 13.83618 | 21408 ft | 420 kts | 155° |
| 2026-04-17 12:33 | 43.35042 | 13.85250 | 20904 ft | 417 kts | 155° |
| 2026-04-17 12:34 | 43.32400 | 13.86871 | 20383 ft | 414 kts | 155° |
| 2026-04-17 12:34 | 43.29771 | 13.88480 | 19842 ft | 412 kts | 155° |
| 2026-04-17 12:34 | 43.27157 | 13.90079 | 19309 ft | 410 kts | 155° |
| 2026-04-17 12:34 | 43.24553 | 13.91669 | 18772 ft | 408 kts | 155° |
| 2026-04-17 12:35 | 43.21961 | 13.93249 | 18207 ft | 407 kts | 155° |
| 2026-04-17 12:35 | 43.19387 | 13.94818 | 17689 ft | 403 kts | 155° |
| 2026-04-17 12:35 | 43.16840 | 13.96371 | 17190 ft | 399 kts | 155° |
| 2026-04-17 12:35 | 43.14334 | 13.97898 | 16679 ft | 396 kts | 155° |
| 2026-04-17 12:37 | 42.97144 | 14.08329 | 13066 ft | 375 kts | 155° |
| 2026-04-17 12:37 | 42.94803 | 14.09747 | 12438 ft | 361 kts | 155° |
| 2026-04-17 12:38 | 42.92558 | 14.11105 | 11959 ft | 347 kts | 155° |
| 2026-04-17 12:38 | 42.90360 | 14.12434 | 11542 ft | 343 kts | 155° |
| 2026-04-17 12:38 | 42.88219 | 14.13729 | 11417 ft | 331 kts | 155° |
| 2026-04-17 12:38 | 42.86150 | 14.14976 | 11288 ft | 319 kts | 154° |
| 2026-04-17 12:39 | 42.84275 | 14.16482 | 11103 ft | 309 kts | 140° |
| 2026-04-17 12:39 | 42.83231 | 14.17780 | 11004 ft | 306 kts | 131° |
| 2026-04-17 12:39 | 42.81961 | 14.20102 | 10329 ft | 304 kts | 118° |
| 2026-04-17 12:39 | 42.80884 | 14.22573 | 9555 ft | 304 kts | 118° |
| 2026-04-17 12:40 | 42.79808 | 14.25010 | 9122 ft | 292 kts | 119° |
| 2026-04-17 12:40 | 42.78798 | 14.27274 | 8976 ft | 270 kts | 120° |
| 2026-04-17 12:40 | 42.77848 | 14.29384 | 8863 ft | 254 kts | 118° |
| 2026-04-17 12:40 | 42.76983 | 14.31443 | 8752 ft | 248 kts | 110° |
| 2026-04-17 12:41 | 42.76433 | 14.33673 | 8440 ft | 249 kts | 101° |
| 2026-04-17 12:41 | 42.75973 | 14.35941 | 8101 ft | 248 kts | 102° |
| 2026-04-17 12:41 | 42.75513 | 14.38189 | 7768 ft | 246 kts | 104° |
| 2026-04-17 12:41 | 42.74842 | 14.40315 | 7439 ft | 246 kts | 123° |
| 2026-04-17 12:42 | 42.73681 | 14.41999 | 7113 ft | 245 kts | 144° |
| 2026-04-17 12:42 | 42.72179 | 14.43065 | 6777 ft | 243 kts | 159° |
| 2026-04-17 12:42 | 42.70608 | 14.43914 | 6430 ft | 243 kts | 162° |
| 2026-04-17 12:42 | 42.68944 | 14.44228 | 6010 ft | 242 kts | 187° |
| 2026-04-17 12:43 | 42.67360 | 14.43582 | 5667 ft | 236 kts | 212° |
| 2026-04-17 12:43 | 42.66057 | 14.42266 | 5358 ft | 232 kts | 223° |
| 2026-04-17 12:43 | 42.64817 | 14.40880 | 5128 ft | 231 kts | 220° |
| 2026-04-17 12:43 | 42.63550 | 14.39533 | 4844 ft | 232 kts | 220° |
| 2026-04-17 12:44 | 42.62272 | 14.38199 | 4534 ft | 232 kts | 219° |
| 2026-04-17 12:44 | 42.60995 | 14.36868 | 4227 ft | 230 kts | 220° |
| 2026-04-17 12:44 | 42.59726 | 14.35545 | 3930 ft | 230 kts | 220° |
| 2026-04-17 12:44 | 42.58460 | 14.34226 | 3622 ft | 229 kts | 220° |
| 2026-04-17 12:45 | 42.57194 | 14.32907 | 3320 ft | 229 kts | 220° |
| 2026-04-17 12:45 | 42.55937 | 14.31598 | 3018 ft | 228 kts | 221° |
| 2026-04-17 12:45 | 42.54699 | 14.30311 | 2715 ft | 220 kts | 220° |
| 2026-04-17 12:45 | 42.53503 | 14.29068 | 2426 ft | 213 kts | 221° |
| 2026-04-17 12:46 | 42.52341 | 14.27860 | 2173 ft | 209 kts | 221° |
| 2026-04-17 12:46 | 42.51211 | 14.26686 | 1874 ft | 199 kts | 221° |
| 2026-04-17 12:46 | 42.50150 | 14.25586 | 1612 ft | 184 kts | 221° |
| 2026-04-17 12:46 | 42.49173 | 14.24572 | 1377 ft | 171 kts | 221° |
| 2026-04-17 12:47 | 42.48258 | 14.23614 | 1156 ft | 162 kts | 225° |
| 2026-04-17 12:47 | 42.47644 | 14.22467 | 1061 ft | 146 kts | 255° |
| 2026-04-17 12:47 | 42.47404 | 14.21152 | 1054 ft | 147 kts | 266° |
| 2026-04-17 12:47 | 42.47265 | 14.19779 | 1055 ft | 147 kts | 271° |
| 2026-04-17 12:48 | 42.47146 | 14.18408 | 1064 ft | 145 kts | 271° |
| 2026-04-17 12:48 | 42.46869 | 14.17092 | 1196 ft | 148 kts | 239° |
| 2026-04-17 12:48 | 42.46166 | 14.16059 | 1203 ft | 154 kts | 223° |
| 2026-04-17 12:48 | 42.45350 | 14.15129 | 1202 ft | 154 kts | 222° |
| 2026-04-17 12:49 | 42.44516 | 14.14218 | 1197 ft | 155 kts | 224° |
| 2026-04-17 12:49 | 42.43679 | 14.13322 | 1209 ft | 152 kts | 221° |
| 2026-04-17 12:49 | 42.42852 | 14.12428 | 1195 ft | 154 kts | 222° |
| 2026-04-17 12:49 | 42.42008 | 14.11554 | 1203 ft | 152 kts | 211° |
| 2026-04-17 12:50 | 42.40989 | 14.11407 | 1247 ft | 154 kts | 160° |
| 2026-04-17 12:50 | 42.40194 | 14.12295 | 1211 ft | 147 kts | 109° |
| 2026-04-17 12:50 | 42.40126 | 14.13587 | 1219 ft | 137 kts | 72° |
| 2026-04-17 12:50 | 42.40451 | 14.14800 | 1072 ft | 136 kts | 60° |
| 2026-04-17 12:51 | 42.40936 | 14.15885 | 774 ft | 132 kts | 46° |
| 2026-04-17 12:51 | 42.41603 | 14.16717 | 476 ft | 131 kts | 36° |
| 2026-04-17 12:51 | 42.42347 | 14.17484 | 218 ft | 134 kts | 34° |
| 2026-04-17 12:51 | 42.43169 | 14.18304 | 657 ft | 155 kts | 34° |
| 2026-04-17 12:52 | 42.44058 | 14.19161 | 1407 ft | 164 kts | 32° |
| 2026-04-17 12:52 | 42.45034 | 14.20048 | 2044 ft | 170 kts | 30° |
| 2026-04-17 12:52 | 42.45901 | 14.21159 | 2644 ft | 183 kts | 57° |
| 2026-04-17 12:52 | 42.46108 | 14.22940 | 3197 ft | 207 kts | 97° |
| 2026-04-17 12:53 | 42.45687 | 14.24866 | 3787 ft | 223 kts | 110° |
| 2026-04-17 12:53 | 42.45032 | 14.26834 | 4440 ft | 232 kts | 108° |
| 2026-04-17 12:53 | 42.44690 | 14.28981 | 4882 ft | 233 kts | 91° |
| 2026-04-17 12:53 | 42.44601 | 14.31159 | 4985 ft | 231 kts | 89° |
| 2026-04-17 12:54 | 42.44546 | 14.33337 | 5008 ft | 231 kts | 89° |
| 2026-04-17 12:54 | 42.44499 | 14.35509 | 5009 ft | 231 kts | 88° |
| 2026-04-17 12:54 | 42.44445 | 14.37684 | 5007 ft | 231 kts | 88° |
| 2026-04-17 12:54 | 42.44396 | 14.39857 | 5007 ft | 230 kts | 89° |
| 2026-04-17 12:55 | 42.44379 | 14.42023 | 5005 ft | 230 kts | 87° |
| 2026-04-17 12:55 | 42.44399 | 14.44185 | 5005 ft | 230 kts | 85° |
| 2026-04-17 12:55 | 42.44440 | 14.46354 | 5004 ft | 230 kts | 85° |
| 2026-04-17 12:55 | 42.44494 | 14.48520 | 5003 ft | 230 kts | 85° |
| 2026-04-17 12:56 | 42.44552 | 14.50685 | 4998 ft | 230 kts | 84° |
| 2026-04-17 12:56 | 42.44613 | 14.52854 | 4999 ft | 230 kts | 84° |
| 2026-04-17 12:56 | 42.44673 | 14.55023 | 4998 ft | 231 kts | 84° |
| 2026-04-17 12:56 | 42.44732 | 14.57197 | 4998 ft | 230 kts | 85° |
| 2026-04-17 12:57 | 42.44792 | 14.59359 | 4999 ft | 230 kts | 84° |
| 2026-04-17 12:57 | 42.44852 | 14.61525 | 4996 ft | 230 kts | 84° |
| 2026-04-17 12:57 | 42.44976 | 14.63679 | 4994 ft | 228 kts | 73° |
| 2026-04-17 12:57 | 42.45650 | 14.65564 | 4992 ft | 222 kts | 46° |
| 2026-04-17 12:58 | 42.46851 | 14.66796 | 4990 ft | 215 kts | 20° |
| 2026-04-17 12:58 | 42.48299 | 14.67163 | 4987 ft | 211 kts | 354° |
| 2026-04-17 12:58 | 42.49680 | 14.66580 | 4707 ft | 210 kts | 327° |
| 2026-04-17 12:58 | 42.50666 | 14.65138 | 4341 ft | 212 kts | 298° |
| 2026-04-17 12:59 | 42.51238 | 14.63261 | 3862 ft | 221 kts | 293° |
| 2026-04-17 12:59 | 42.51804 | 14.61304 | 3430 ft | 224 kts | 294° |
| 2026-04-17 12:59 | 42.52372 | 14.59342 | 3069 ft | 223 kts | 294° |
| 2026-04-17 12:59 | 42.52851 | 14.57346 | 2730 ft | 223 kts | 286° |
| 2026-04-17 13:00 | 42.53201 | 14.55295 | 2384 ft | 222 kts | 285° |
| 2026-04-17 13:00 | 42.53526 | 14.53257 | 2093 ft | 220 kts | 285° |
| 2026-04-17 13:00 | 42.53844 | 14.51237 | 1998 ft | 219 kts | 285° |
| 2026-04-17 13:00 | 42.54163 | 14.49208 | 2004 ft | 221 kts | 285° |
| 2026-04-17 13:01 | 42.54484 | 14.47175 | 2004 ft | 221 kts | 285° |
| 2026-04-17 13:01 | 42.54806 | 14.45136 | 2003 ft | 221 kts | 285° |
| 2026-04-17 13:01 | 42.55129 | 14.43095 | 2005 ft | 221 kts | 285° |
| 2026-04-17 13:01 | 42.55448 | 14.41080 | 2003 ft | 221 kts | 285° |
| 2026-04-17 13:02 | 42.55774 | 14.39013 | 2006 ft | 221 kts | 285° |
| 2026-04-17 13:02 | 42.56098 | 14.36970 | 2005 ft | 222 kts | 285° |
| 2026-04-17 13:02 | 42.56244 | 14.34873 | 2007 ft | 226 kts | 269° |
| 2026-04-17 13:02 | 42.55962 | 14.32811 | 2001 ft | 218 kts | 253° |
| 2026-04-17 13:03 | 42.55228 | 14.31046 | 2006 ft | 221 kts | 233° |
| 2026-04-17 13:03 | 42.54073 | 14.29652 | 2007 ft | 224 kts | 220° |
| 2026-04-17 13:03 | 42.52816 | 14.28350 | 2007 ft | 225 kts | 220° |
| 2026-04-17 13:03 | 42.51587 | 14.27076 | 1918 ft | 219 kts | 220° |
| 2026-04-17 13:04 | 42.50414 | 14.25859 | 1676 ft | 211 kts | 221° |
| 2026-04-17 13:04 | 42.49275 | 14.24678 | 1431 ft | 195 kts | 220° |
| 2026-04-17 13:04 | 42.48248 | 14.23612 | 1178 ft | 176 kts | 220° |
| 2026-04-17 13:04 | 42.47319 | 14.22648 | 940 ft | 161 kts | 221° |
| 2026-04-17 13:05 | 42.46465 | 14.21762 | 732 ft | 155 kts | 221° |
| 2026-04-17 13:05 | 42.45611 | 14.20874 | 512 ft | 153 kts | 220° |
| 2026-04-17 13:05 | 42.44780 | 14.20007 | 318 ft | 150 kts | 219° |
| 2026-04-17 13:05 | 42.43961 | 14.19165 | 107 ft | 148 kts | 219° |
| 2026-04-17 13:06 | 42.43200 | 14.18366 | 46 ft | 114 kts | 218° |
| 2026-04-17 13:06 | 42.42803 | 14.17961 | 48 ft | 44 kts | 214° |
| 2026-04-17 13:06 | 42.42612 | 14.17900 | 48 ft | 15 kts | 182° |
| 2026-04-17 13:06 | 42.42557 | 14.17986 | 48 ft | 13 kts | 76° |
| 2026-04-17 13:07 | 42.42628 | 14.18070 | 45 ft | 15 kts | 36° |
| 2026-04-17 13:07 | 42.42715 | 14.18159 | 48 ft | 17 kts | 38° |
| 2026-04-17 13:07 | 42.42812 | 14.18260 | 47 ft | 18 kts | 37° |
| 2026-04-17 13:07 | 42.42918 | 14.18370 | 48 ft | 20 kts | 38° |
| 2026-04-17 13:08 | 42.43008 | 14.18476 | 48 ft | 15 kts | 61° |
| 2026-04-17 13:08 | 42.43026 | 14.18604 | 48 ft | 13 kts | 75° |
| 2026-04-17 13:08 | 42.43087 | 14.18682 | 48 ft | 9 kts | 36° |
| 2026-04-17 13:08 | 42.43091 | 14.18701 | 48 ft | 0 kts | 103° |
| 2026-04-17 13:09 | 42.43080 | 14.18725 | 47 ft | 6 kts | 124° |
| 2026-04-17 13:09 | 42.43071 | 14.18743 | 48 ft | 2 kts | 129° |
| 2026-04-17 13:09 | 42.43062 | 14.18757 | 47 ft | 0 kts | 129° |